Kezdőlap
METAR-TAF:

METAR-TAF

Repülőterek :

Kisarazu, Japán

földrajzi szélesség: 35-24N, földrajzi hosszúság: 139-55E, magasság: 3 m

Jelenlegi meteorológiai megfigyelések

A jelentés 22 órával és 59 perccel ezelõtt készült, 08:43 UTC
Észak-északnyugati szél 5 kt
Hőmérséklet 21°C
Páratartalom 73%
Légköri nyomás 1011 hPa
Látótávolság 10 km, vagy több
Kevés felhő 2000 lábon
Szórványos felhőzet 2500 lábon
Szakadozott felhőzet 23000 lábon

METAR: RJTK 200843Z 33005KT 9999 FEW020 SCT025 BKN230 21/16 Q1011 RMK 1CU020 3CU025 7CI230 A2986

Idő: 16:42 (07:42 UTC)


TAF: hiányzik

Meteorológiai megfigyelések és előrejelzések több, mint 4000 repülőtéren (METAR és TAF jelentéseket).

A térképen piros és sárga pontok jelzik az elérhető meteorológiai állomásokat.

Mozgassa az egeret a pont fölött, hogy megjelenjen az állomás neve.

Azután kattintson az időjárási megfigyelések és előrejelzések megtekintéséhez.

A térkép megváltoztatása: kattintson a fekete keresztel jelölt zöld gombra ráközelítéshez, a vonallal jelölt zöld gombra távolításhoz, vagy a zöld nyilakra a szomszédos térképek eléréséhez.


METAR-TAF: